Terminal Aerodrome Forecast
Issued by NWS

Home | Current Version | Previous Version | Text Only | Print | Product List | Glossary On
Versions: 1 2 3 4 5 6 7 8 9 10 11 12 13 14
264
FTUS41 KBTV 260802 AAA
TAFRUT
TAF AMD
KRUT 260802Z 2608/2706 VRB04KT P6SM SKC
      TEMPO 2608/2612 2SM BR BKN002
     FM261200 00000KT 1 1/2SM BR BKN002
     FM261400 VRB03KT P6SM FEW040 SCT250
     FM261700 15006KT P6SM SCT040 BKN200
     FM270000 14007KT P6SM BKN200=

USA.gov is the U.S. government's official web portal to all federal, state and local government web resources and services.